sensor_id;sensor_type;location;lat;lon;timestamp;P1;durP1;ratioP1;P2;durP2;ratioP2
70663;SDS011;58237;57.996;56.290;2022-09-09T00:03:57;4.47;;;1.35;;
70663;SDS011;58237;57.996;56.290;2022-09-09T00:06:27;5.07;;;1.50;;
70663;SDS011;58237;57.996;56.290;2022-09-09T00:09:11;3.40;;;1.25;;
70663;SDS011;58237;57.996;56.290;2022-09-09T00:11:48;3.05;;;1.20;;
70663;SDS011;58237;57.996;56.290;2022-09-09T00:14:18;3.50;;;1.45;;
70663;SDS011;58237;57.996;56.290;2022-09-09T00:16:47;3.72;;;1.40;;
70663;SDS011;58237;57.996;56.290;2022-09-09T00:21:46;4.50;;;1.70;;
70663;SDS011;58237;57.996;56.290;2022-09-09T00:24:24;3.88;;;1.50;;
70663;SDS011;58237;57.996;56.290;2022-09-09T00:26:51;4.38;;;1.58;;
70663;SDS011;58237;57.996;56.290;2022-09-09T00:29:28;4.70;;;1.42;;
70663;SDS011;58237;57.996;56.290;2022-09-09T00:32:00;3.28;;;1.30;;
70663;SDS011;58237;57.996;56.290;2022-09-09T00:34:29;3.75;;;1.42;;
70663;SDS011;58237;57.996;56.290;2022-09-09T00:36:55;3.55;;;1.30;;
70663;SDS011;58237;57.996;56.290;2022-09-09T00:39:38;4.10;;;1.40;;
70663;SDS011;58237;57.996;56.290;2022-09-09T00:42:14;3.78;;;1.08;;
70663;SDS011;58237;57.996;56.290;2022-09-09T00:44:48;4.22;;;1.48;;
70663;SDS011;58237;57.996;56.290;2022-09-09T00:50:00;2.95;;;1.08;;
70663;SDS011;58237;57.996;56.290;2022-09-09T00:52:35;3.85;;;1.20;;
70663;SDS011;58237;57.996;56.290;2022-09-09T00:57:39;4.50;;;1.52;;
70663;SDS011;58237;57.996;56.290;2022-09-09T01:02:39;5.35;;;2.00;;
70663;SDS011;58237;57.996;56.290;2022-09-09T01:05:54;5.93;;;2.22;;
70663;SDS011;58237;57.996;56.290;2022-09-09T01:07:52;5.03;;;1.80;;
70663;SDS011;58237;57.996;56.290;2022-09-09T01:10:22;4.55;;;1.63;;
70663;SDS011;58237;57.996;56.290;2022-09-09T01:12:51;6.18;;;2.53;;
70663;SDS011;58237;57.996;56.290;2022-09-09T01:15:23;5.45;;;2.25;;
70663;SDS011;58237;57.996;56.290;2022-09-09T01:17:58;5.68;;;2.28;;
70663;SDS011;58237;57.996;56.290;2022-09-09T01:20:26;5.18;;;2.38;;
70663;SDS011;58237;57.996;56.290;2022-09-09T01:28:14;4.10;;;1.48;;
70663;SDS011;58237;57.996;56.290;2022-09-09T01:30:41;4.90;;;1.83;;
70663;SDS011;58237;57.996;56.290;2022-09-09T01:33:07;6.20;;;2.05;;
70663;SDS011;58237;57.996;56.290;2022-09-09T01:38:00;5.30;;;1.80;;
70663;SDS011;58237;57.996;56.290;2022-09-09T01:40:25;4.30;;;1.67;;
70663;SDS011;58237;57.996;56.290;2022-09-09T01:42:51;5.28;;;1.95;;
70663;SDS011;58237;57.996;56.290;2022-09-09T01:45:17;4.68;;;2.08;;
70663;SDS011;58237;57.996;56.290;2022-09-09T01:47:42;5.40;;;1.75;;
70663;SDS011;58237;57.996;56.290;2022-09-09T01:50:08;5.22;;;1.90;;
70663;SDS011;58237;57.996;56.290;2022-09-09T01:52:34;4.72;;;1.95;;
70663;SDS011;58237;57.996;56.290;2022-09-09T01:55:01;5.07;;;2.08;;
70663;SDS011;58237;57.996;56.290;2022-09-09T01:57:33;5.85;;;2.22;;
70663;SDS011;58237;57.996;56.290;2022-09-09T02:00:05;5.68;;;2.30;;
70663;SDS011;58237;57.996;56.290;2022-09-09T02:07:30;6.95;;;2.58;;
70663;SDS011;58237;57.996;56.290;2022-09-09T02:10:02;5.60;;;1.70;;
70663;SDS011;58237;57.996;56.290;2022-09-09T02:12:30;4.85;;;1.73;;
70663;SDS011;58237;57.996;56.290;2022-09-09T02:14:56;5.28;;;1.98;;
70663;SDS011;58237;57.996;56.290;2022-09-09T02:17:27;4.53;;;1.65;;
70663;SDS011;58237;57.996;56.290;2022-09-09T02:20:06;4.90;;;1.75;;
70663;SDS011;58237;57.996;56.290;2022-09-09T02:22:33;4.78;;;1.90;;
70663;SDS011;58237;57.996;56.290;2022-09-09T02:24:59;4.57;;;1.67;;
70663;SDS011;58237;57.996;56.290;2022-09-09T02:27:25;3.10;;;1.42;;
70663;SDS011;58237;57.996;56.290;2022-09-09T02:29:51;5.15;;;1.83;;
70663;SDS011;58237;57.996;56.290;2022-09-09T02:32:19;3.95;;;1.80;;
70663;SDS011;58237;57.996;56.290;2022-09-09T02:34:49;4.43;;;1.48;;
70663;SDS011;58237;57.996;56.290;2022-09-09T02:37:17;4.82;;;1.75;;
70663;SDS011;58237;57.996;56.290;2022-09-09T02:39:43;4.95;;;1.67;;
70663;SDS011;58237;57.996;56.290;2022-09-09T02:42:08;3.67;;;1.40;;
70663;SDS011;58237;57.996;56.290;2022-09-09T02:44:34;3.17;;;1.13;;
70663;SDS011;58237;57.996;56.290;2022-09-09T02:49:48;4.15;;;1.63;;
70663;SDS011;58237;57.996;56.290;2022-09-09T02:52:18;3.95;;;1.50;;
70663;SDS011;58237;57.996;56.290;2022-09-09T02:54:45;3.28;;;1.23;;
70663;SDS011;58237;57.996;56.290;2022-09-09T02:57:17;3.60;;;1.30;;
70663;SDS011;58237;57.996;56.290;2022-09-09T02:59:44;2.13;;;1.17;;
70663;SDS011;58237;57.996;56.290;2022-09-09T03:02:09;2.08;;;0.80;;
70663;SDS011;58237;57.996;56.290;2022-09-09T03:04:35;3.05;;;1.17;;
70663;SDS011;58237;57.996;56.290;2022-09-09T03:07:00;2.90;;;1.17;;
70663;SDS011;58237;57.996;56.290;2022-09-09T03:09:26;4.90;;;1.70;;
70663;SDS011;58237;57.996;56.290;2022-09-09T03:11:51;3.95;;;1.70;;
70663;SDS011;58237;57.996;56.290;2022-09-09T03:14:16;4.35;;;1.73;;
70663;SDS011;58237;57.996;56.290;2022-09-09T03:16:42;4.47;;;1.83;;
70663;SDS011;58237;57.996;56.290;2022-09-09T03:19:07;3.58;;;1.15;;
70663;SDS011;58237;57.996;56.290;2022-09-09T03:21:32;2.35;;;1.08;;
70663;SDS011;58237;57.996;56.290;2022-09-09T03:23:58;4.47;;;1.52;;
70663;SDS011;58237;57.996;56.290;2022-09-09T03:26:23;4.25;;;1.67;;
70663;SDS011;58237;57.996;56.290;2022-09-09T03:28:48;2.97;;;1.20;;
70663;SDS011;58237;57.996;56.290;2022-09-09T03:31:15;2.90;;;1.27;;
70663;SDS011;58237;57.996;56.290;2022-09-09T03:33:41;3.15;;;1.25;;
70663;SDS011;58237;57.996;56.290;2022-09-09T03:36:06;3.03;;;1.00;;
70663;SDS011;58237;57.996;56.290;2022-09-09T03:38:32;4.07;;;1.70;;
70663;SDS011;58237;57.996;56.290;2022-09-09T03:40:57;2.70;;;1.27;;
70663;SDS011;58237;57.996;56.290;2022-09-09T03:43:23;4.00;;;1.60;;
70663;SDS011;58237;57.996;56.290;2022-09-09T03:45:49;3.00;;;1.33;;
70663;SDS011;58237;57.996;56.290;2022-09-09T03:48:15;3.42;;;1.05;;
70663;SDS011;58237;57.996;56.290;2022-09-09T03:50:47;2.75;;;1.00;;
70663;SDS011;58237;57.996;56.290;2022-09-09T03:53:12;3.75;;;0.93;;
70663;SDS011;58237;57.996;56.290;2022-09-09T03:55:38;2.70;;;1.02;;
70663;SDS011;58237;57.996;56.290;2022-09-09T03:58:04;2.67;;;0.98;;
70663;SDS011;58237;57.996;56.290;2022-09-09T04:00:29;2.58;;;1.00;;
70663;SDS011;58237;57.996;56.290;2022-09-09T04:02:54;2.85;;;1.00;;
70663;SDS011;58237;57.996;56.290;2022-09-09T04:05:20;2.22;;;0.80;;
70663;SDS011;58237;57.996;56.290;2022-09-09T04:07:45;2.83;;;1.00;;
70663;SDS011;58237;57.996;56.290;2022-09-09T04:10:10;2.42;;;0.82;;
70663;SDS011;58237;57.996;56.290;2022-09-09T04:12:36;2.17;;;0.90;;
70663;SDS011;58237;57.996;56.290;2022-09-09T04:15:01;1.77;;;0.80;;
70663;SDS011;58237;57.996;56.290;2022-09-09T04:17:26;1.42;;;0.60;;
70663;SDS011;58237;57.996;56.290;2022-09-09T04:19:51;1.58;;;0.70;;
70663;SDS011;58237;57.996;56.290;2022-09-09T04:22:17;1.70;;;0.70;;
70663;SDS011;58237;57.996;56.290;2022-09-09T04:24:42;2.92;;;0.88;;
70663;SDS011;58237;57.996;56.290;2022-09-09T04:27:07;2.55;;;0.77;;
70663;SDS011;58237;57.996;56.290;2022-09-09T04:29:33;1.63;;;0.77;;
70663;SDS011;58237;57.996;56.290;2022-09-09T04:31:58;2.45;;;0.80;;
70663;SDS011;58237;57.996;56.290;2022-09-09T04:34:23;1.67;;;0.60;;
70663;SDS011;58237;57.996;56.290;2022-09-09T04:36:49;2.33;;;0.82;;
70663;SDS011;58237;57.996;56.290;2022-09-09T04:39:14;1.17;;;0.60;;
70663;SDS011;58237;57.996;56.290;2022-09-09T04:41:39;1.33;;;0.60;;
70663;SDS011;58237;57.996;56.290;2022-09-09T04:44:05;0.65;;;0.50;;
70663;SDS011;58237;57.996;56.290;2022-09-09T04:46:30;0.93;;;0.50;;
70663;SDS011;58237;57.996;56.290;2022-09-09T04:48:55;1.27;;;0.52;;
70663;SDS011;58237;57.996;56.290;2022-09-09T04:51:21;2.00;;;0.70;;
70663;SDS011;58237;57.996;56.290;2022-09-09T04:53:46;0.93;;;0.57;;
70663;SDS011;58237;57.996;56.290;2022-09-09T04:56:13;0.95;;;0.50;;
70663;SDS011;58237;57.996;56.290;2022-09-09T04:58:39;1.52;;;0.70;;
70663;SDS011;58237;57.996;56.290;2022-09-09T05:01:12;1.48;;;0.70;;
70663;SDS011;58237;57.996;56.290;2022-09-09T05:03:38;1.58;;;0.80;;
70663;SDS011;58237;57.996;56.290;2022-09-09T05:06:07;1.42;;;0.70;;
70663;SDS011;58237;57.996;56.290;2022-09-09T05:08:33;1.35;;;0.50;;
70663;SDS011;58237;57.996;56.290;2022-09-09T05:10:59;2.67;;;1.27;;
70663;SDS011;58237;57.996;56.290;2022-09-09T05:13:24;1.92;;;0.82;;
70663;SDS011;58237;57.996;56.290;2022-09-09T05:15:53;2.10;;;0.70;;
70663;SDS011;58237;57.996;56.290;2022-09-09T05:18:18;1.35;;;0.60;;
70663;SDS011;58237;57.996;56.290;2022-09-09T05:20:44;0.82;;;0.50;;
70663;SDS011;58237;57.996;56.290;2022-09-09T05:23:09;1.80;;;0.73;;
70663;SDS011;58237;57.996;56.290;2022-09-09T05:25:37;0.60;;;0.43;;
70663;SDS011;58237;57.996;56.290;2022-09-09T05:28:08;2.58;;;0.70;;
70663;SDS011;58237;57.996;56.290;2022-09-09T05:30:33;1.10;;;0.60;;
70663;SDS011;58237;57.996;56.290;2022-09-09T05:32:59;0.57;;;0.40;;
70663;SDS011;58237;57.996;56.290;2022-09-09T05:35:24;1.17;;;0.57;;
70663;SDS011;58237;57.996;56.290;2022-09-09T05:37:50;1.35;;;0.52;;
70663;SDS011;58237;57.996;56.290;2022-09-09T05:40:15;1.83;;;0.73;;
70663;SDS011;58237;57.996;56.290;2022-09-09T05:42:40;1.40;;;0.68;;
70663;SDS011;58237;57.996;56.290;2022-09-09T05:45:07;1.30;;;0.55;;
70663;SDS011;58237;57.996;56.290;2022-09-09T05:47:32;1.25;;;0.52;;
70663;SDS011;58237;57.996;56.290;2022-09-09T05:49:58;1.20;;;0.57;;
70663;SDS011;58237;57.996;56.290;2022-09-09T05:52:23;0.70;;;0.50;;
70663;SDS011;58237;57.996;56.290;2022-09-09T05:54:48;1.08;;;0.50;;
70663;SDS011;58237;57.996;56.290;2022-09-09T05:57:14;0.88;;;0.52;;
70663;SDS011;58237;57.996;56.290;2022-09-09T05:59:39;1.73;;;0.55;;
70663;SDS011;58237;57.996;56.290;2022-09-09T06:02:04;1.13;;;0.50;;
70663;SDS011;58237;57.996;56.290;2022-09-09T06:04:30;1.13;;;0.60;;
70663;SDS011;58237;57.996;56.290;2022-09-09T06:06:55;1.45;;;0.40;;
70663;SDS011;58237;57.996;56.290;2022-09-09T06:09:20;1.60;;;0.60;;
70663;SDS011;58237;57.996;56.290;2022-09-09T06:11:46;1.00;;;0.60;;
70663;SDS011;58237;57.996;56.290;2022-09-09T06:14:11;0.80;;;0.50;;
70663;SDS011;58237;57.996;56.290;2022-09-09T06:16:36;0.68;;;0.40;;
70663;SDS011;58237;57.996;56.290;2022-09-09T06:19:02;1.50;;;0.50;;
70663;SDS011;58237;57.996;56.290;2022-09-09T06:21:31;1.48;;;0.65;;
70663;SDS011;58237;57.996;56.290;2022-09-09T06:23:56;2.40;;;0.80;;
70663;SDS011;58237;57.996;56.290;2022-09-09T06:26:23;2.75;;;0.80;;
70663;SDS011;58237;57.996;56.290;2022-09-09T06:28:49;1.52;;;0.50;;
70663;SDS011;58237;57.996;56.290;2022-09-09T06:31:16;1.15;;;0.52;;
70663;SDS011;58237;57.996;56.290;2022-09-09T06:33:41;1.02;;;0.60;;
70663;SDS011;58237;57.996;56.290;2022-09-09T06:36:07;1.50;;;0.80;;
70663;SDS011;58237;57.996;56.290;2022-09-09T06:38:35;2.03;;;0.70;;
70663;SDS011;58237;57.996;56.290;2022-09-09T06:41:00;1.25;;;0.55;;
70663;SDS011;58237;57.996;56.290;2022-09-09T06:43:26;1.45;;;0.80;;
70663;SDS011;58237;57.996;56.290;2022-09-09T06:48:19;1.35;;;0.70;;
70663;SDS011;58237;57.996;56.290;2022-09-09T06:50:45;1.67;;;0.70;;
70663;SDS011;58237;57.996;56.290;2022-09-09T06:53:10;1.20;;;0.70;;
70663;SDS011;58237;57.996;56.290;2022-09-09T06:55:35;1.63;;;0.70;;
70663;SDS011;58237;57.996;56.290;2022-09-09T06:58:01;1.55;;;0.60;;
70663;SDS011;58237;57.996;56.290;2022-09-09T07:00:26;5.13;;;1.10;;
70663;SDS011;58237;57.996;56.290;2022-09-09T07:02:51;1.38;;;0.70;;
70663;SDS011;58237;57.996;56.290;2022-09-09T07:05:17;2.63;;;0.70;;
70663;SDS011;58237;57.996;56.290;2022-09-09T07:07:42;2.47;;;0.98;;
70663;SDS011;58237;57.996;56.290;2022-09-09T07:10:07;2.78;;;1.00;;
70663;SDS011;58237;57.996;56.290;2022-09-09T07:12:33;4.07;;;1.10;;
70663;SDS011;58237;57.996;56.290;2022-09-09T07:14:58;3.25;;;1.38;;
70663;SDS011;58237;57.996;56.290;2022-09-09T07:17:23;2.83;;;1.20;;
70663;SDS011;58237;57.996;56.290;2022-09-09T07:19:49;2.90;;;1.08;;
70663;SDS011;58237;57.996;56.290;2022-09-09T07:22:14;2.40;;;0.90;;
70663;SDS011;58237;57.996;56.290;2022-09-09T07:24:39;2.15;;;0.80;;
70663;SDS011;58237;57.996;56.290;2022-09-09T07:27:05;3.53;;;1.17;;
70663;SDS011;58237;57.996;56.290;2022-09-09T07:29:33;7.45;;;1.50;;
70663;SDS011;58237;57.996;56.290;2022-09-09T07:31:58;4.05;;;1.33;;
70663;SDS011;58237;57.996;56.290;2022-09-09T07:34:24;3.65;;;1.40;;
70663;SDS011;58237;57.996;56.290;2022-09-09T07:36:49;3.17;;;1.20;;
70663;SDS011;58237;57.996;56.290;2022-09-09T07:39:14;1.98;;;0.95;;
70663;SDS011;58237;57.996;56.290;2022-09-09T07:41:44;2.92;;;0.95;;
70663;SDS011;58237;57.996;56.290;2022-09-09T07:44:13;3.70;;;1.20;;
70663;SDS011;58237;57.996;56.290;2022-09-09T07:46:39;1.92;;;0.80;;
70663;SDS011;58237;57.996;56.290;2022-09-09T07:49:05;0.93;;;0.63;;
70663;SDS011;58237;57.996;56.290;2022-09-09T07:51:31;3.15;;;0.65;;
70663;SDS011;58237;57.996;56.290;2022-09-09T07:53:58;1.52;;;0.70;;
70663;SDS011;58237;57.996;56.290;2022-09-09T07:56:25;1.52;;;0.50;;
70663;SDS011;58237;57.996;56.290;2022-09-09T07:58:51;1.45;;;0.60;;
70663;SDS011;58237;57.996;56.290;2022-09-09T08:01:24;1.05;;;0.60;;
70663;SDS011;58237;57.996;56.290;2022-09-09T08:03:54;1.60;;;0.80;;
70663;SDS011;58237;57.996;56.290;2022-09-09T08:06:20;2.00;;;0.80;;
70663;SDS011;58237;57.996;56.290;2022-09-09T08:08:49;3.55;;;0.95;;
70663;SDS011;58237;57.996;56.290;2022-09-09T08:11:14;2.08;;;0.90;;
70663;SDS011;58237;57.996;56.290;2022-09-09T08:13:40;2.17;;;0.93;;
70663;SDS011;58237;57.996;56.290;2022-09-09T08:16:10;2.53;;;0.82;;
70663;SDS011;58237;57.996;56.290;2022-09-09T08:18:36;1.58;;;0.75;;
70663;SDS011;58237;57.996;56.290;2022-09-09T08:21:17;1.80;;;0.85;;
70663;SDS011;58237;57.996;56.290;2022-09-09T08:23:43;2.30;;;1.10;;
70663;SDS011;58237;57.996;56.290;2022-09-09T08:29:05;1.45;;;0.80;;
70663;SDS011;58237;57.996;56.290;2022-09-09T08:31:32;1.98;;;0.70;;
70663;SDS011;58237;57.996;56.290;2022-09-09T08:33:58;1.67;;;0.88;;
70663;SDS011;58237;57.996;56.290;2022-09-09T08:36:24;2.13;;;0.90;;
70663;SDS011;58237;57.996;56.290;2022-09-09T08:38:51;2.45;;;1.00;;
70663;SDS011;58237;57.996;56.290;2022-09-09T08:43:46;2.05;;;0.95;;
70663;SDS011;58237;57.996;56.290;2022-09-09T08:46:17;3.97;;;1.13;;
70663;SDS011;58237;57.996;56.290;2022-09-09T08:51:14;2.45;;;0.98;;
70663;SDS011;58237;57.996;56.290;2022-09-09T08:53:43;2.17;;;0.95;;
70663;SDS011;58237;57.996;56.290;2022-09-09T08:56:09;2.38;;;0.80;;
70663;SDS011;58237;57.996;56.290;2022-09-09T08:58:43;1.23;;;0.77;;
70663;SDS011;58237;57.996;56.290;2022-09-09T09:11:10;3.10;;;0.90;;
70663;SDS011;58237;57.996;56.290;2022-09-09T09:13:39;2.58;;;0.80;;
70663;SDS011;58237;57.996;56.290;2022-09-09T09:16:11;2.10;;;0.95;;
70663;SDS011;58237;57.996;56.290;2022-09-09T09:18:38;1.92;;;1.00;;
70663;SDS011;58237;57.996;56.290;2022-09-09T09:21:06;2.10;;;1.00;;
70663;SDS011;58237;57.996;56.290;2022-09-09T09:26:16;2.60;;;0.88;;
70663;SDS011;58237;57.996;56.290;2022-09-09T09:28:41;4.70;;;0.82;;
70663;SDS011;58237;57.996;56.290;2022-09-09T09:31:09;1.50;;;0.90;;
70663;SDS011;58237;57.996;56.290;2022-09-09T09:36:06;1.58;;;0.80;;
70663;SDS011;58237;57.996;56.290;2022-09-09T09:38:32;2.00;;;0.90;;
70663;SDS011;58237;57.996;56.290;2022-09-09T09:40:58;3.05;;;0.80;;
70663;SDS011;58237;57.996;56.290;2022-09-09T09:43:27;2.70;;;0.85;;
70663;SDS011;58237;57.996;56.290;2022-09-09T09:45:53;1.75;;;0.90;;
70663;SDS011;58237;57.996;56.290;2022-09-09T09:48:18;1.70;;;0.77;;
70663;SDS011;58237;57.996;56.290;2022-09-09T09:50:51;3.03;;;1.00;;
70663;SDS011;58237;57.996;56.290;2022-09-09T09:53:29;3.13;;;0.85;;
70663;SDS011;58237;57.996;56.290;2022-09-09T09:56:02;1.95;;;1.00;;
70663;SDS011;58237;57.996;56.290;2022-09-09T09:58:32;2.03;;;1.08;;
70663;SDS011;58237;57.996;56.290;2022-09-09T10:00:58;3.58;;;1.00;;
70663;SDS011;58237;57.996;56.290;2022-09-09T10:03:30;2.78;;;1.00;;
70663;SDS011;58237;57.996;56.290;2022-09-09T10:05:56;2.22;;;1.00;;
70663;SDS011;58237;57.996;56.290;2022-09-09T10:08:22;2.33;;;1.00;;
70663;SDS011;58237;57.996;56.290;2022-09-09T10:13:27;3.55;;;1.13;;
70663;SDS011;58237;57.996;56.290;2022-09-09T10:20:59;2.78;;;1.20;;
70663;SDS011;58237;57.996;56.290;2022-09-09T10:31:40;4.30;;;1.30;;
70663;SDS011;58237;57.996;56.290;2022-09-09T10:36:38;2.97;;;1.00;;
70663;SDS011;58237;57.996;56.290;2022-09-09T10:47:11;1.95;;;0.88;;
70663;SDS011;58237;57.996;56.290;2022-09-09T10:57:13;2.10;;;1.00;;
70663;SDS011;58237;57.996;56.290;2022-09-09T10:59:43;3.10;;;1.08;;
70663;SDS011;58237;57.996;56.290;2022-09-09T11:02:29;4.03;;;1.23;;
70663;SDS011;58237;57.996;56.290;2022-09-09T11:04:56;2.33;;;1.08;;
70663;SDS011;58237;57.996;56.290;2022-09-09T11:07:28;2.13;;;1.08;;
70663;SDS011;58237;57.996;56.290;2022-09-09T11:09:56;3.00;;;1.02;;
70663;SDS011;58237;57.996;56.290;2022-09-09T11:12:23;7.25;;;1.27;;
70663;SDS011;58237;57.996;56.290;2022-09-09T11:14:59;5.18;;;1.20;;
70663;SDS011;58237;57.996;56.290;2022-09-09T11:17:34;3.45;;;1.00;;
70663;SDS011;58237;57.996;56.290;2022-09-09T11:20:01;2.28;;;0.90;;
70663;SDS011;58237;57.996;56.290;2022-09-09T11:26:06;2.72;;;1.10;;
70663;SDS011;58237;57.996;56.290;2022-09-09T11:28:26;2.10;;;0.95;;
70663;SDS011;58237;57.996;56.290;2022-09-09T11:36:00;2.28;;;0.93;;
70663;SDS011;58237;57.996;56.290;2022-09-09T11:38:29;6.85;;;1.30;;
70663;SDS011;58237;57.996;56.290;2022-09-09T11:41:01;2.13;;;1.10;;
70663;SDS011;58237;57.996;56.290;2022-09-09T11:43:31;4.15;;;1.10;;
70663;SDS011;58237;57.996;56.290;2022-09-09T11:45:58;2.45;;;0.90;;
70663;SDS011;58237;57.996;56.290;2022-09-09T11:48:40;5.25;;;0.90;;
70663;SDS011;58237;57.996;56.290;2022-09-09T11:51:07;3.13;;;0.90;;
70663;SDS011;58237;57.996;56.290;2022-09-09T11:53:47;3.85;;;1.20;;
70663;SDS011;58237;57.996;56.290;2022-09-09T11:56:12;2.55;;;1.00;;
70663;SDS011;58237;57.996;56.290;2022-09-09T11:58:42;2.38;;;0.95;;
70663;SDS011;58237;57.996;56.290;2022-09-09T12:04:04;3.25;;;1.15;;
70663;SDS011;58237;57.996;56.290;2022-09-09T12:06:31;2.33;;;1.10;;
70663;SDS011;58237;57.996;56.290;2022-09-09T12:08:58;1.88;;;0.90;;
70663;SDS011;58237;57.996;56.290;2022-09-09T12:11:31;3.47;;;0.90;;
70663;SDS011;58237;57.996;56.290;2022-09-09T12:13:58;3.53;;;1.05;;
70663;SDS011;58237;57.996;56.290;2022-09-09T12:16:30;3.47;;;1.17;;
70663;SDS011;58237;57.996;56.290;2022-09-09T12:19:13;1.42;;;0.90;;
70663;SDS011;58237;57.996;56.290;2022-09-09T12:21:45;3.00;;;1.00;;
70663;SDS011;58237;57.996;56.290;2022-09-09T12:24:12;3.60;;;1.88;;
70663;SDS011;58237;57.996;56.290;2022-09-09T12:39:38;2.00;;;0.80;;
70663;SDS011;58237;57.996;56.290;2022-09-09T12:42:04;1.75;;;0.82;;
70663;SDS011;58237;57.996;56.290;2022-09-09T12:44:30;3.63;;;1.20;;
70663;SDS011;58237;57.996;56.290;2022-09-09T12:46:56;2.45;;;0.88;;
70663;SDS011;58237;57.996;56.290;2022-09-09T12:49:26;4.47;;;0.90;;
70663;SDS011;58237;57.996;56.290;2022-09-09T12:51:51;3.05;;;0.90;;
70663;SDS011;58237;57.996;56.290;2022-09-09T12:54:17;1.80;;;0.80;;
70663;SDS011;58237;57.996;56.290;2022-09-09T12:56:45;2.22;;;0.88;;
70663;SDS011;58237;57.996;56.290;2022-09-09T12:59:18;3.70;;;0.90;;
70663;SDS011;58237;57.996;56.290;2022-09-09T13:01:54;1.65;;;0.60;;
70663;SDS011;58237;57.996;56.290;2022-09-09T13:04:20;1.73;;;0.70;;
70663;SDS011;58237;57.996;56.290;2022-09-09T13:06:46;2.80;;;1.17;;
70663;SDS011;58237;57.996;56.290;2022-09-09T13:09:11;3.72;;;1.10;;
70663;SDS011;58237;57.996;56.290;2022-09-09T13:11:41;3.25;;;1.13;;
70663;SDS011;58237;57.996;56.290;2022-09-09T13:14:12;2.78;;;0.90;;
70663;SDS011;58237;57.996;56.290;2022-09-09T13:16:40;2.08;;;0.90;;
70663;SDS011;58237;57.996;56.290;2022-09-09T13:19:09;2.33;;;1.02;;
70663;SDS011;58237;57.996;56.290;2022-09-09T13:21:38;4.50;;;0.95;;
70663;SDS011;58237;57.996;56.290;2022-09-09T13:24:05;2.20;;;0.93;;
70663;SDS011;58237;57.996;56.290;2022-09-09T13:26:30;5.55;;;1.65;;
70663;SDS011;58237;57.996;56.290;2022-09-09T13:29:07;2.10;;;0.90;;
70663;SDS011;58237;57.996;56.290;2022-09-09T13:31:34;1.55;;;0.70;;
70663;SDS011;58237;57.996;56.290;2022-09-09T13:34:10;3.95;;;1.05;;
70663;SDS011;58237;57.996;56.290;2022-09-09T13:36:35;3.38;;;0.90;;
70663;SDS011;58237;57.996;56.290;2022-09-09T13:39:01;3.28;;;0.70;;
70663;SDS011;58237;57.996;56.290;2022-09-09T13:41:32;7.80;;;1.40;;
70663;SDS011;58237;57.996;56.290;2022-09-09T13:43:58;2.63;;;1.02;;
70663;SDS011;58237;57.996;56.290;2022-09-09T13:46:28;3.67;;;0.90;;
70663;SDS011;58237;57.996;56.290;2022-09-09T13:48:58;1.92;;;0.70;;
70663;SDS011;58237;57.996;56.290;2022-09-09T13:51:28;2.08;;;0.80;;
70663;SDS011;58237;57.996;56.290;2022-09-09T13:53:54;5.82;;;0.85;;
70663;SDS011;58237;57.996;56.290;2022-09-09T13:56:20;1.85;;;0.80;;
70663;SDS011;58237;57.996;56.290;2022-09-09T13:58:45;2.67;;;0.82;;
70663;SDS011;58237;57.996;56.290;2022-09-09T14:01:10;2.90;;;1.05;;
70663;SDS011;58237;57.996;56.290;2022-09-09T14:03:36;2.97;;;1.10;;
70663;SDS011;58237;57.996;56.290;2022-09-09T14:06:01;2.95;;;1.13;;
70663;SDS011;58237;57.996;56.290;2022-09-09T14:08:26;3.35;;;1.10;;
70663;SDS011;58237;57.996;56.290;2022-09-09T14:10:52;4.38;;;0.98;;
70663;SDS011;58237;57.996;56.290;2022-09-09T14:13:18;3.05;;;1.00;;
70663;SDS011;58237;57.996;56.290;2022-09-09T14:15:43;3.42;;;1.02;;
70663;SDS011;58237;57.996;56.290;2022-09-09T14:18:12;2.58;;;1.17;;
70663;SDS011;58237;57.996;56.290;2022-09-09T14:20:37;4.95;;;1.35;;
70663;SDS011;58237;57.996;56.290;2022-09-09T14:23:02;3.92;;;1.48;;
70663;SDS011;58237;57.996;56.290;2022-09-09T14:25:28;4.28;;;1.15;;
70663;SDS011;58237;57.996;56.290;2022-09-09T14:27:53;4.10;;;1.10;;
70663;SDS011;58237;57.996;56.290;2022-09-09T14:30:19;3.25;;;1.10;;
70663;SDS011;58237;57.996;56.290;2022-09-09T14:32:44;3.40;;;1.30;;
70663;SDS011;58237;57.996;56.290;2022-09-09T14:35:09;2.85;;;0.90;;
70663;SDS011;58237;57.996;56.290;2022-09-09T14:37:34;3.25;;;1.30;;
70663;SDS011;58237;57.996;56.290;2022-09-09T14:40:00;2.40;;;0.80;;
70663;SDS011;58237;57.996;56.290;2022-09-09T14:42:25;2.40;;;0.88;;
70663;SDS011;58237;57.996;56.290;2022-09-09T14:44:51;2.25;;;1.00;;
70663;SDS011;58237;57.996;56.290;2022-09-09T14:47:16;3.17;;;1.15;;
70663;SDS011;58237;57.996;56.290;2022-09-09T14:49:41;2.72;;;1.10;;
70663;SDS011;58237;57.996;56.290;2022-09-09T14:52:07;2.40;;;1.02;;
70663;SDS011;58237;57.996;56.290;2022-09-09T14:54:32;4.25;;;1.13;;
70663;SDS011;58237;57.996;56.290;2022-09-09T14:56:57;5.80;;;1.30;;
70663;SDS011;58237;57.996;56.290;2022-09-09T14:59:23;3.65;;;1.05;;
70663;SDS011;58237;57.996;56.290;2022-09-09T15:01:49;3.65;;;1.30;;
70663;SDS011;58237;57.996;56.290;2022-09-09T15:04:14;3.28;;;1.20;;
70663;SDS011;58237;57.996;56.290;2022-09-09T15:06:39;4.63;;;1.20;;
70663;SDS011;58237;57.996;56.290;2022-09-09T15:09:05;4.07;;;1.30;;
70663;SDS011;58237;57.996;56.290;2022-09-09T15:11:31;2.97;;;1.45;;
70663;SDS011;58237;57.996;56.290;2022-09-09T15:13:58;4.13;;;1.10;;
70663;SDS011;58237;57.996;56.290;2022-09-09T15:16:24;2.65;;;1.00;;
70663;SDS011;58237;57.996;56.290;2022-09-09T15:18:50;3.63;;;1.00;;
70663;SDS011;58237;57.996;56.290;2022-09-09T15:21:17;5.13;;;1.38;;
70663;SDS011;58237;57.996;56.290;2022-09-09T15:23:42;3.45;;;1.30;;
70663;SDS011;58237;57.996;56.290;2022-09-09T15:26:08;3.88;;;1.25;;
70663;SDS011;58237;57.996;56.290;2022-09-09T15:28:35;5.65;;;2.38;;
70663;SDS011;58237;57.996;56.290;2022-09-09T15:31:00;4.50;;;1.20;;
70663;SDS011;58237;57.996;56.290;2022-09-09T15:33:29;3.13;;;1.20;;
70663;SDS011;58237;57.996;56.290;2022-09-09T15:35:54;6.90;;;1.40;;
70663;SDS011;58237;57.996;56.290;2022-09-09T15:38:20;6.13;;;1.52;;
70663;SDS011;58237;57.996;56.290;2022-09-09T15:40:45;4.43;;;1.38;;
70663;SDS011;58237;57.996;56.290;2022-09-09T15:43:17;4.55;;;1.30;;
70663;SDS011;58237;57.996;56.290;2022-09-09T15:45:43;4.85;;;1.55;;
70663;SDS011;58237;57.996;56.290;2022-09-09T15:48:10;3.45;;;1.10;;
70663;SDS011;58237;57.996;56.290;2022-09-09T15:50:36;4.38;;;1.60;;
70663;SDS011;58237;57.996;56.290;2022-09-09T15:53:01;3.90;;;1.38;;
70663;SDS011;58237;57.996;56.290;2022-09-09T15:55:26;4.00;;;1.30;;
70663;SDS011;58237;57.996;56.290;2022-09-09T15:57:52;6.28;;;1.92;;
70663;SDS011;58237;57.996;56.290;2022-09-09T16:00:17;3.65;;;1.30;;
70663;SDS011;58237;57.996;56.290;2022-09-09T16:02:42;6.15;;;1.88;;
70663;SDS011;58237;57.996;56.290;2022-09-09T16:05:08;4.47;;;1.50;;
70663;SDS011;58237;57.996;56.290;2022-09-09T16:07:33;4.43;;;1.52;;
70663;SDS011;58237;57.996;56.290;2022-09-09T16:09:58;5.10;;;1.50;;
70663;SDS011;58237;57.996;56.290;2022-09-09T16:12:24;3.75;;;1.17;;
70663;SDS011;58237;57.996;56.290;2022-09-09T16:14:49;5.60;;;1.83;;
70663;SDS011;58237;57.996;56.290;2022-09-09T16:17:14;3.20;;;1.30;;
70663;SDS011;58237;57.996;56.290;2022-09-09T16:19:40;7.00;;;1.67;;
70663;SDS011;58237;57.996;56.290;2022-09-09T16:22:05;4.63;;;1.70;;
70663;SDS011;58237;57.996;56.290;2022-09-09T16:24:30;3.25;;;1.10;;
70663;SDS011;58237;57.996;56.290;2022-09-09T16:26:56;3.90;;;1.17;;